Terminal Aerodrome Forecast
Issued by NWS Wakefield, VA

Home | Current Version | Previous Version | Text Only | Print | Product List | Glossary On
Versions: 1 2 3 4 5 6 7 8 9 10 11 12 13 14 15 16 17 18 19
637
FTUS41 KAKQ 240654 AAA
TAFSBY
TAF AMD
KSBY 240654Z 2407/2506 22015G23KT P6SM VCSH BKN080
     FM241100 26013G20KT P6SM VCSH BKN050
     FM241500 27012KT P6SM SCT040
     FM242100 27008KT P6SM SCT060
     FM250000 VRB03KT P6SM SCT150=

USA.gov is the U.S. government's official web portal to all federal, state and local government web resources and services.